Time;durP1;ratioP1;P1;durP2;ratioP2;P2;SDS_P1;SDS_P2;PMS_P1;PMS_P2;Temp;Humidity;BMP_temperature;BMP_pressure;BME280_temperature;BME280_humidity;BME280_pressure;Samples;Min_cycle;Max_cycle;Signal;HPM_P1;HPM_P2
2021/08/19 00:00:19;;;;;;;4.33;3.93;;;;;;;;;;5033424;28;20197;-86
2021/08/19 00:02:45;;;;;;;5.40;4.30;;;;;;;;;;5018543;28;20637;-86
2021/08/19 00:05:14;;;;;;;4.87;4.37;;;;;;;;;;5024295;28;20695;-85
2021/08/19 00:07:40;;;;;;;6.40;5.10;;;;;;;;;;5050593;28;20206;-84
2021/08/19 00:10:10;;;;;;;4.93;4.23;;;;;;;;;;5040791;28;20288;-85
2021/08/19 00:12:37;;;;;;;4.77;3.87;;;;;;;;;;5006536;28;20170;-85
2021/08/19 00:15:03;;;;;;;5.50;5.00;;;;;;;;;;5031326;28;20636;-86
2021/08/19 00:17:30;;;;;;;4.83;4.43;;;;;;;;;;5050788;28;20213;-85
2021/08/19 00:19:56;;;;;;;5.47;4.67;;;;;;;;;;5024060;28;20626;-85
2021/08/19 00:22:25;;;;;;;5.93;5.13;;;;;;;;;;5041759;28;20197;-86
2021/08/19 00:24:51;;;;;;;6.60;5.10;;;;;;;;;;5028948;28;20184;-85
2021/08/19 00:27:17;;;;;;;5.63;5.00;;;;;;;;;;5024385;28;20178;-86
2021/08/19 00:29:44;;;;;;;5.30;4.80;;;;;;;;;;5024063;28;20315;-85
2021/08/19 00:32:10;;;;;;;5.17;4.50;;;;;;;;;;5040531;28;20184;-85
2021/08/19 00:34:36;;;;;;;4.73;4.33;;;;;;;;;;5042072;28;20260;-85
2021/08/19 00:37:02;;;;;;;4.80;4.30;;;;;;;;;;5042055;28;20173;-85
2021/08/19 00:39:36;;;;;;;5.57;4.87;;;;;;;;;;5004736;28;20189;-85
2021/08/19 00:42:08;;;;;;;8.73;5.53;;;;;;;;;;5005681;28;20850;-85
2021/08/19 00:44:35;;;;;;;6.40;5.80;;;;;;;;;;5021723;28;20219;-85
2021/08/19 00:47:01;;;;;;;5.53;4.87;;;;;;;;;;5040419;28;20200;-85
2021/08/19 00:49:29;;;;;;;8.13;4.87;;;;;;;;;;5007917;28;20213;-86
2021/08/19 00:51:55;;;;;;;5.70;4.47;;;;;;;;;;5039602;28;20216;-86
2021/08/19 00:54:25;;;;;;;8.77;4.93;;;;;;;;;;5024843;28;20193;-87
2021/08/19 00:56:56;;;;;;;5.37;4.47;;;;;;;;;;5024646;28;20221;-86
2021/08/19 00:59:25;;;;;;;7.17;5.20;;;;;;;;;;5023900;28;20185;-85
2021/08/19 01:01:58;;;;;;;7.27;4.83;;;;;;;;;;5005363;28;20612;-85
2021/08/19 01:04:24;;;;;;;5.27;4.77;;;;;;;;;;5040265;28;20185;-86
2021/08/19 01:06:52;;;;;;;5.40;4.90;;;;;;;;;;5024769;28;20240;-85
2021/08/19 01:09:18;;;;;;;4.87;4.47;;;;;;;;;;5026251;28;20236;-85
2021/08/19 01:11:45;;;;;;;6.60;4.93;;;;;;;;;;5037222;28;20206;-86
2021/08/19 01:14:11;;;;;;;5.87;4.53;;;;;;;;;;5023865;28;20181;-85
2021/08/19 01:16:37;;;;;;;6.00;5.40;;;;;;;;;;5020029;28;20648;-85
2021/08/19 01:19:03;;;;;;;6.20;5.70;;;;;;;;;;5022640;28;20188;-86
2021/08/19 01:21:30;;;;;;;5.73;5.20;;;;;;;;;;5023366;28;20192;-86
2021/08/19 01:23:56;;;;;;;6.03;5.27;;;;;;;;;;5019502;28;20178;-86
2021/08/19 01:26:23;;;;;;;6.77;5.43;;;;;;;;;;5021025;28;20690;-86
2021/08/19 01:28:50;;;;;;;6.53;5.70;;;;;;;;;;5020108;28;20660;-86
2021/08/19 01:31:17;;;;;;;6.63;5.80;;;;;;;;;;5019931;28;20181;-86
2021/08/19 01:33:44;;;;;;;6.33;5.47;;;;;;;;;;5020169;28;20182;-86
2021/08/19 01:36:11;;;;;;;6.93;5.50;;;;;;;;;;5020263;28;20221;-86
2021/08/19 01:38:41;;;;;;;6.03;5.37;;;;;;;;;;5020517;28;20185;-85
2021/08/19 01:41:08;;;;;;;9.53;5.60;;;;;;;;;;5002505;28;20288;-86
2021/08/19 01:43:34;;;;;;;6.80;5.77;;;;;;;;;;5020576;28;20182;-86
2021/08/19 01:46:27;;;;;;;5.73;5.23;;;;;;;;;;5020059;28;20237;-85
2021/08/19 01:48:53;;;;;;;6.93;5.47;;;;;;;;;;5014085;28;20605;-86
2021/08/19 01:51:20;;;;;;;6.33;5.60;;;;;;;;;;5021121;28;20691;-86
2021/08/19 01:53:55;;;;;;;6.47;5.60;;;;;;;;;;5021024;28;20182;-85
2021/08/19 01:56:25;;;;;;;8.53;6.17;;;;;;;;;;5023599;28;20226;-85
2021/08/19 01:58:55;;;;;;;7.13;6.40;;;;;;;;;;5026166;28;20216;-85
2021/08/19 02:01:22;;;;;;;8.43;5.73;;;;;;;;;;5003333;28;20225;-86
2021/08/19 02:03:53;;;;;;;8.25;6.80;;;;;;;;;;5030318;28;20429;-86
2021/08/19 02:06:20;;;;;;;6.77;6.03;;;;;;;;;;5030578;28;20248;-85
2021/08/19 02:08:46;;;;;;;7.57;5.83;;;;;;;;;;5049559;28;20224;-86
2021/08/19 02:11:12;;;;;;;7.93;5.83;;;;;;;;;;5033992;28;20185;-85
2021/08/19 02:13:39;;;;;;;6.73;6.03;;;;;;;;;;5031637;28;20174;-85
2021/08/19 02:16:05;;;;;;;7.77;6.63;;;;;;;;;;5027971;28;20182;-86
2021/08/19 02:18:31;;;;;;;7.97;6.13;;;;;;;;;;5027792;28;20197;-86
2021/08/19 02:20:58;;;;;;;8.70;7.20;;;;;;;;;;5028217;28;20209;-85
2021/08/19 02:23:25;;;;;;;7.43;6.10;;;;;;;;;;5044215;28;20177;-86
2021/08/19 02:25:51;;;;;;;8.23;6.03;;;;;;;;;;5025516;28;20182;-87
2021/08/19 02:28:18;;;;;;;7.67;6.87;;;;;;;;;;5022793;28;20192;-86
2021/08/19 02:30:44;;;;;;;7.33;6.13;;;;;;;;;;5022304;28;20265;-86
2021/08/19 02:33:10;;;;;;;9.60;7.00;;;;;;;;;;5017784;28;20190;-86
2021/08/19 02:35:36;;;;;;;7.13;6.13;;;;;;;;;;5029572;28;20239;-85
2021/08/19 02:38:06;;;;;;;10.37;7.33;;;;;;;;;;5026228;28;20649;-85
2021/08/19 02:40:35;;;;;;;7.90;6.50;;;;;;;;;;5023005;28;20271;-86
2021/08/19 02:43:02;;;;;;;8.03;6.73;;;;;;;;;;5017695;28;20259;-85
2021/08/19 02:45:28;;;;;;;8.43;6.67;;;;;;;;;;5017563;28;20223;-86
2021/08/19 02:47:54;;;;;;;8.40;7.03;;;;;;;;;;5023562;28;20269;-85
2021/08/19 02:50:21;;;;;;;8.07;6.37;;;;;;;;;;5018390;28;20560;-86
2021/08/19 02:52:47;;;;;;;7.63;6.67;;;;;;;;;;5016382;28;20174;-86
2021/08/19 02:55:13;;;;;;;7.93;6.80;;;;;;;;;;5029996;28;20178;-86
2021/08/19 02:57:39;;;;;;;8.10;6.70;;;;;;;;;;5034267;28;20181;-86
2021/08/19 03:00:07;;;;;;;9.40;6.20;;;;;;;;;;5034945;28;20184;-87
2021/08/19 03:02:33;;;;;;;6.83;5.97;;;;;;;;;;5015935;28;20185;-86
2021/08/19 03:04:59;;;;;;;6.60;6.00;;;;;;;;;;5014566;28;20204;-86
2021/08/19 03:07:29;;;;;;;7.50;6.40;;;;;;;;;;5032875;28;20228;-86
2021/08/19 03:09:55;;;;;;;6.53;5.93;;;;;;;;;;5038437;28;20212;-86
2021/08/19 03:12:21;;;;;;;8.90;7.20;;;;;;;;;;5049839;28;20184;-86
2021/08/19 03:14:50;;;;;;;7.20;6.30;;;;;;;;;;5034862;28;20174;-87
2021/08/19 03:17:16;;;;;;;7.80;6.70;;;;;;;;;;5015540;28;20169;-86
2021/08/19 03:19:43;;;;;;;8.30;6.20;;;;;;;;;;5033224;28;20241;-86
2021/08/19 03:22:09;;;;;;;8.53;6.73;;;;;;;;;;5031760;28;20276;-86
2021/08/19 03:24:36;;;;;;;9.07;5.87;;;;;;;;;;5032611;28;20187;-86
2021/08/19 03:27:03;;;;;;;6.43;5.73;;;;;;;;;;5014603;28;20213;-86
2021/08/19 03:29:32;;;;;;;6.47;5.80;;;;;;;;;;5015286;28;20297;-86
2021/08/19 03:31:58;;;;;;;8.87;6.53;;;;;;;;;;5015628;28;20172;-86
2021/08/19 03:34:24;;;;;;;8.70;6.27;;;;;;;;;;5014998;28;20193;-86
2021/08/19 03:36:50;;;;;;;8.17;6.43;;;;;;;;;;5031943;28;20181;-86
2021/08/19 03:39:16;;;;;;;7.97;7.17;;;;;;;;;;5031822;28;20255;-86
2021/08/19 03:41:43;;;;;;;7.87;6.87;;;;;;;;;;5032738;28;20185;-86
2021/08/19 03:44:09;;;;;;;8.50;6.43;;;;;;;;;;5016009;28;20548;-86
2021/08/19 03:46:37;;;;;;;11.37;7.00;;;;;;;;;;5049520;28;20182;-86
2021/08/19 03:49:03;;;;;;;7.87;6.60;;;;;;;;;;5037547;28;20221;-86
2021/08/19 03:51:30;;;;;;;9.30;8.40;;;;;;;;;;5014188;28;20181;-86
2021/08/19 03:53:58;;;;;;;8.37;7.10;;;;;;;;;;5033930;28;20186;-86
2021/08/19 03:56:27;;;;;;;9.83;7.73;;;;;;;;;;5014868;28;20238;-86
2021/08/19 03:58:56;;;;;;;10.97;7.07;;;;;;;;;;5029555;28;20214;-87
2021/08/19 04:01:23;;;;;;;9.43;7.67;;;;;;;;;;5031346;28;20193;-86
2021/08/19 04:03:52;;;;;;;9.77;7.23;;;;;;;;;;5033755;28;20197;-86
2021/08/19 04:06:18;;;;;;;8.93;6.97;;;;;;;;;;5014577;28;20288;-86
2021/08/19 04:08:48;;;;;;;9.23;7.73;;;;;;;;;;5015826;28;20202;-87
2021/08/19 04:11:14;;;;;;;11.03;6.87;;;;;;;;;;5015376;28;20174;-86
2021/08/19 04:13:40;;;;;;;8.03;6.90;;;;;;;;;;5014804;28;20182;-86
2021/08/19 04:16:10;;;;;;;7.10;6.40;;;;;;;;;;5030541;28;20189;-86
2021/08/19 04:18:36;;;;;;;11.27;7.43;;;;;;;;;;5015725;28;20250;-86
2021/08/19 04:21:03;;;;;;;7.23;6.53;;;;;;;;;;5022121;28;20200;-86
2021/08/19 04:23:30;;;;;;;8.63;6.30;;;;;;;;;;5014478;28;20612;-86
2021/08/19 04:25:58;;;;;;;6.93;6.07;;;;;;;;;;5033852;28;20189;-87
2021/08/19 04:28:24;;;;;;;9.33;6.43;;;;;;;;;;5015236;28;20186;-86
2021/08/19 04:30:50;;;;;;;9.00;7.47;;;;;;;;;;5016614;28;20660;-86
2021/08/19 04:33:17;;;;;;;8.07;7.07;;;;;;;;;;5033443;28;20228;-86
2021/08/19 04:35:45;;;;;;;10.43;7.60;;;;;;;;;;5027700;28;20192;-86
2021/08/19 04:38:11;;;;;;;12.10;7.47;;;;;;;;;;5013956;28;20185;-86
2021/08/19 04:40:37;;;;;;;11.60;7.83;;;;;;;;;;5016034;28;20601;-87
2021/08/19 04:43:04;;;;;;;6.87;6.10;;;;;;;;;;5016516;28;20215;-87
2021/08/19 04:45:30;;;;;;;6.90;6.20;;;;;;;;;;5023159;28;20174;-87
2021/08/19 04:47:56;;;;;;;8.40;7.57;;;;;;;;;;5015731;28;20272;-87
2021/08/19 04:50:22;;;;;;;9.33;6.57;;;;;;;;;;5012387;28;20198;-87
2021/08/19 04:52:49;;;;;;;9.83;7.03;;;;;;;;;;5017882;28;20232;-87
2021/08/19 04:55:15;;;;;;;10.03;6.83;;;;;;;;;;5020800;28;20766;-87
2021/08/19 04:57:41;;;;;;;9.80;7.13;;;;;;;;;;5038061;28;20204;-86
2021/08/19 05:00:07;;;;;;;8.73;6.87;;;;;;;;;;5017427;28;20193;-86
2021/08/19 05:02:33;;;;;;;9.73;6.93;;;;;;;;;;5017873;28;20597;-87
2021/08/19 05:04:59;;;;;;;8.97;7.30;;;;;;;;;;5016581;28;20193;-87
2021/08/19 05:07:26;;;;;;;7.23;6.57;;;;;;;;;;5013951;28;20297;-87
2021/08/19 05:09:53;;;;;;;7.53;6.60;;;;;;;;;;5031154;28;20236;-86
2021/08/19 05:12:19;;;;;;;10.30;7.53;;;;;;;;;;5040797;28;20186;-87
2021/08/19 05:14:45;;;;;;;10.23;6.87;;;;;;;;;;5036797;28;20251;-86
2021/08/19 05:17:11;;;;;;;11.63;7.67;;;;;;;;;;5015445;28;20178;-86
2021/08/19 05:19:37;;;;;;;7.70;6.77;;;;;;;;;;5017229;28;20269;-86
2021/08/19 05:22:06;;;;;;;7.60;6.80;;;;;;;;;;5031304;28;20248;-86
2021/08/19 05:24:32;;;;;;;8.37;7.37;;;;;;;;;;5033026;28;20193;-86
2021/08/19 05:26:58;;;;;;;9.07;8.18;;;;;;;;;;5025007;28;20410;-87
2021/08/19 05:29:24;;;;;;;9.90;7.43;;;;;;;;;;5017576;28;20213;-87
2021/08/19 05:31:50;;;;;;;7.93;7.13;;;;;;;;;;5031429;28;20197;-87
2021/08/19 05:34:16;;;;;;;8.77;7.63;;;;;;;;;;5014570;28;20181;-87
2021/08/19 05:36:42;;;;;;;9.37;7.83;;;;;;;;;;5014843;28;20287;-84
2021/08/19 05:39:08;;;;;;;12.03;9.03;;;;;;;;;;5031909;28;20189;-87
2021/08/19 05:41:34;;;;;;;13.60;8.40;;;;;;;;;;5034443;28;20214;-86
2021/08/19 05:44:00;;;;;;;13.93;8.67;;;;;;;;;;5029217;28;20187;-87
2021/08/19 05:46:26;;;;;;;9.50;8.17;;;;;;;;;;5044528;28;20208;-89
2021/08/19 05:48:53;;;;;;;10.00;8.37;;;;;;;;;;5018681;28;20255;-87
2021/08/19 05:51:19;;;;;;;12.10;8.67;;;;;;;;;;5057271;28;20173;-88
2021/08/19 05:53:45;;;;;;;10.90;7.80;;;;;;;;;;5019049;28;20273;-87
2021/08/19 05:56:11;;;;;;;10.57;8.47;;;;;;;;;;5017121;28;20228;-86
2021/08/19 05:58:38;;;;;;;13.70;8.97;;;;;;;;;;5033685;28;20275;-86
2021/08/19 06:01:04;;;;;;;10.80;8.60;;;;;;;;;;5033540;28;20204;-86
2021/08/19 06:03:30;;;;;;;11.23;8.20;;;;;;;;;;5015855;28;20182;-86
2021/08/19 06:05:57;;;;;;;10.90;8.43;;;;;;;;;;5032501;28;20292;-86
2021/08/19 06:08:23;;;;;;;10.13;8.37;;;;;;;;;;5016254;28;20205;-86
2021/08/19 06:10:49;;;;;;;10.10;8.10;;;;;;;;;;5016551;28;20271;-86
2021/08/19 06:13:15;;;;;;;8.60;7.43;;;;;;;;;;5035884;28;20261;-86
2021/08/19 06:15:41;;;;;;;9.43;7.77;;;;;;;;;;5038472;28;20185;-85
2021/08/19 06:18:07;;;;;;;11.17;8.53;;;;;;;;;;5039948;28;20652;-83
2021/08/19 06:20:33;;;;;;;10.67;7.53;;;;;;;;;;5039678;28;20659;-83
2021/08/19 06:23:00;;;;;;;8.17;7.27;;;;;;;;;;5033014;28;20590;-82
2021/08/19 06:25:26;;;;;;;8.07;7.27;;;;;;;;;;5019892;28;20269;-85
2021/08/19 06:27:53;;;;;;;16.00;8.60;;;;;;;;;;5032855;28;20242;-85
2021/08/19 06:30:19;;;;;;;10.30;7.67;;;;;;;;;;5004306;28;20211;-85
2021/08/19 06:32:45;;;;;;;13.27;8.63;;;;;;;;;;5015686;28;20264;-85
2021/08/19 06:35:12;;;;;;;19.90;9.50;;;;;;;;;;5031925;28;20189;-85
2021/08/19 06:37:38;;;;;;;10.87;8.27;;;;;;;;;;5015580;28;20193;-86
2021/08/19 06:40:04;;;;;;;12.27;9.13;;;;;;;;;;5016474;28;20182;-86
2021/08/19 06:42:31;;;;;;;12.77;8.90;;;;;;;;;;5031268;28;20189;-86
2021/08/19 06:44:57;;;;;;;11.10;8.43;;;;;;;;;;5033003;28;20186;-85
2021/08/19 06:47:23;;;;;;;12.23;9.07;;;;;;;;;;5032461;28;20185;-85
2021/08/19 06:49:49;;;;;;;14.33;10.40;;;;;;;;;;5028413;28;20201;-84
2021/08/19 06:52:15;;;;;;;14.13;10.30;;;;;;;;;;5032270;28;20174;-84
2021/08/19 06:54:41;;;;;;;17.00;11.77;;;;;;;;;;5015167;28;20185;-85
2021/08/19 06:57:07;;;;;;;12.60;11.30;;;;;;;;;;5031873;28;20371;-84
2021/08/19 06:59:33;;;;;;;13.13;11.27;;;;;;;;;;5031797;28;20185;-83
2021/08/19 07:01:59;;;;;;;14.00;10.50;;;;;;;;;;5032980;28;20184;-84
2021/08/19 07:04:25;;;;;;;12.83;10.03;;;;;;;;;;5031684;28;20243;-84
2021/08/19 07:06:55;;;;;;;13.57;10.13;;;;;;;;;;5032522;28;20306;-84
2021/08/19 07:09:21;;;;;;;11.70;10.23;;;;;;;;;;5031564;28;20205;-85
2021/08/19 07:11:49;;;;;;;12.67;9.80;;;;;;;;;;5015838;28;20176;-85
2021/08/19 07:14:15;;;;;;;10.37;9.23;;;;;;;;;;5031369;28;20185;-84
2021/08/19 07:16:41;;;;;;;13.00;10.30;;;;;;;;;;5030938;28;20182;-84
2021/08/19 07:19:07;;;;;;;13.27;10.10;;;;;;;;;;5031590;28;20188;-84
2021/08/19 07:21:33;;;;;;;10.73;9.03;;;;;;;;;;5012993;28;20200;-84
2021/08/19 07:23:59;;;;;;;11.77;8.90;;;;;;;;;;5031966;28;20186;-85
2021/08/19 07:26:25;;;;;;;11.83;8.53;;;;;;;;;;5011118;28;20194;-84
2021/08/19 07:28:53;;;;;;;10.97;9.03;;;;;;;;;;5027332;28;20221;-85
2021/08/19 07:31:20;;;;;;;11.70;8.87;;;;;;;;;;5032264;28;20590;-84
2021/08/19 07:33:46;;;;;;;10.83;8.27;;;;;;;;;;5031443;28;20232;-85
2021/08/19 07:36:12;;;;;;;11.73;8.60;;;;;;;;;;5026029;28;20205;-84
2021/08/19 07:38:38;;;;;;;13.63;8.30;;;;;;;;;;5014240;28;20552;-85
2021/08/19 07:41:04;;;;;;;10.83;8.80;;;;;;;;;;5031335;28;20169;-85
2021/08/19 07:43:30;;;;;;;11.40;8.00;;;;;;;;;;5013561;28;20272;-85
2021/08/19 07:45:58;;;;;;;11.20;8.30;;;;;;;;;;5030030;28;20185;-84
2021/08/19 07:48:24;;;;;;;9.90;8.27;;;;;;;;;;5013936;28;20211;-84
2021/08/19 07:50:50;;;;;;;9.17;8.00;;;;;;;;;;5013125;28;20327;-84
2021/08/19 07:53:16;;;;;;;10.80;8.27;;;;;;;;;;5031477;28;20174;-83
2021/08/19 07:55:42;;;;;;;9.07;8.00;;;;;;;;;;5031440;28;20225;-86
2021/08/19 07:58:08;;;;;;;11.30;9.20;;;;;;;;;;5029685;28;20228;-84
2021/08/19 08:00:35;;;;;;;12.37;8.90;;;;;;;;;;5029697;28;20185;-84
2021/08/19 08:03:02;;;;;;;11.87;9.97;;;;;;;;;;5030036;28;20176;-84
2021/08/19 08:05:29;;;;;;;12.20;10.10;;;;;;;;;;5028912;28;20983;-84
2021/08/19 08:08:01;;;;;;;13.20;10.00;;;;;;;;;;5013351;28;20583;-85
2021/08/19 08:10:28;;;;;;;11.77;9.73;;;;;;;;;;5013761;28;20684;-86
2021/08/19 08:12:54;;;;;;;13.57;10.03;;;;;;;;;;5030426;28;20273;-84
2021/08/19 08:15:20;;;;;;;12.07;10.10;;;;;;;;;;5011006;28;20275;-84
2021/08/19 08:17:46;;;;;;;11.80;10.53;;;;;;;;;;5013326;28;20224;-84
2021/08/19 08:20:12;;;;;;;12.20;10.33;;;;;;;;;;5019903;28;20182;-84
2021/08/19 08:22:43;;;;;;;11.63;10.40;;;;;;;;;;5011836;28;20177;-84
2021/08/19 08:25:09;;;;;;;12.80;10.90;;;;;;;;;;5011264;28;20570;-84
2021/08/19 08:27:35;;;;;;;12.40;10.27;;;;;;;;;;5013470;28;20239;-84
2021/08/19 08:30:02;;;;;;;13.33;10.40;;;;;;;;;;5010480;28;20217;-84
2021/08/19 08:32:29;;;;;;;11.90;9.63;;;;;;;;;;5030256;28;20260;-83
2021/08/19 08:34:55;;;;;;;11.73;10.00;;;;;;;;;;5035556;28;20256;-84
2021/08/19 08:37:23;;;;;;;12.47;10.67;;;;;;;;;;5022320;28;20293;-84
2021/08/19 08:39:49;;;;;;;12.87;10.67;;;;;;;;;;5035167;28;20940;-84
2021/08/19 08:42:15;;;;;;;11.67;9.90;;;;;;;;;;5035542;28;20188;-84
2021/08/19 08:44:41;;;;;;;12.47;9.57;;;;;;;;;;5034218;28;20259;-84
2021/08/19 08:47:08;;;;;;;12.03;9.70;;;;;;;;;;5026704;28;20183;-86
2021/08/19 08:49:35;;;;;;;10.87;9.73;;;;;;;;;;5032841;28;20301;-85
2021/08/19 08:52:04;;;;;;;12.47;10.00;;;;;;;;;;5034136;28;20170;-86
2021/08/19 08:54:31;;;;;;;12.67;9.87;;;;;;;;;;5035499;28;20272;-86
2021/08/19 08:56:57;;;;;;;11.83;9.07;;;;;;;;;;5024968;28;20232;-85
2021/08/19 08:59:24;;;;;;;12.33;10.10;;;;;;;;;;5017761;28;20181;-85
2021/08/19 09:01:50;;;;;;;10.10;9.03;;;;;;;;;;5017552;28;20212;-85
2021/08/19 09:04:16;;;;;;;12.43;10.57;;;;;;;;;;5034146;28;20277;-85
2021/08/19 09:06:44;;;;;;;13.10;11.03;;;;;;;;;;5016967;28;20288;-85
2021/08/19 09:09:17;;;;;;;12.80;10.30;;;;;;;;;;5021791;28;20285;-85
2021/08/19 09:11:48;;;;;;;12.63;11.43;;;;;;;;;;5017991;28;20212;-85
2021/08/19 09:14:18;;;;;;;12.30;11.00;;;;;;;;;;5017216;28;20534;-85
2021/08/19 09:16:46;;;;;;;12.70;10.17;;;;;;;;;;5035457;28;20635;-86
2021/08/19 09:19:13;;;;;;;15.17;11.63;;;;;;;;;;5016687;28;20209;-85
2021/08/19 09:21:46;;;;;;;12.40;10.30;;;;;;;;;;5016005;28;20272;-86
2021/08/19 09:24:13;;;;;;;13.03;11.63;;;;;;;;;;5016758;28;20247;-86
2021/08/19 09:26:40;;;;;;;12.10;10.63;;;;;;;;;;5034478;28;20178;-86
2021/08/19 09:29:35;;;;;;;15.97;11.57;;;;;;;;;;5016793;28;20684;-85
2021/08/19 09:32:11;;;;;;;14.77;11.37;;;;;;;;;;5009279;28;20190;-86
2021/08/19 09:34:38;;;;;;;16.43;12.50;;;;;;;;;;5013059;28;20545;-86
2021/08/19 09:37:08;;;;;;;14.10;11.70;;;;;;;;;;5017280;28;20216;-86
2021/08/19 09:39:44;;;;;;;14.40;11.70;;;;;;;;;;5017520;28;20182;-86
2021/08/19 09:42:11;;;;;;;12.40;11.10;;;;;;;;;;5011007;28;20640;-87
2021/08/19 09:44:45;;;;;;;13.00;11.60;;;;;;;;;;5015852;28;20190;-87
2021/08/19 09:47:34;;;;;;;12.03;10.47;;;;;;;;;;5034838;28;20525;-86
2021/08/19 09:50:10;;;;;;;14.23;11.90;;;;;;;;;;5010862;28;20205;-87
2021/08/19 09:52:37;;;;;;;11.93;10.67;;;;;;;;;;5034450;28;20571;-85
2021/08/19 09:55:26;;;;;;;12.03;10.73;;;;;;;;;;5015971;28;20204;-85
2021/08/19 09:57:55;;;;;;;13.93;11.00;;;;;;;;;;5001143;28;20190;-85
2021/08/19 10:00:29;;;;;;;12.20;10.90;;;;;;;;;;5014451;28;20178;-85
2021/08/19 10:02:56;;;;;;;14.00;12.53;;;;;;;;;;5008725;28;20640;-85
2021/08/19 10:05:22;;;;;;;11.47;10.00;;;;;;;;;;5013666;28;20673;-85
2021/08/19 10:07:48;;;;;;;11.67;9.93;;;;;;;;;;4995964;28;20692;-87
2021/08/19 10:10:14;;;;;;;12.33;9.83;;;;;;;;;;5013743;28;20205;-85
2021/08/19 10:12:42;;;;;;;11.37;10.10;;;;;;;;;;5012731;28;20187;-86
2021/08/19 10:15:09;;;;;;;11.03;9.43;;;;;;;;;;4998030;28;20178;-88
2021/08/19 10:17:36;;;;;;;12.27;9.47;;;;;;;;;;4998133;28;20269;-86
2021/08/19 10:20:04;;;;;;;8.93;8.07;;;;;;;;;;4998336;28;20195;-87
2021/08/19 10:22:34;;;;;;;11.13;8.97;;;;;;;;;;4999670;28;20189;-85
2021/08/19 10:25:00;;;;;;;9.90;8.70;;;;;;;;;;5016824;28;20178;-85
2021/08/19 10:27:30;;;;;;;10.73;9.23;;;;;;;;;;4999010;28;20186;-85
2021/08/19 10:30:01;;;;;;;9.53;8.53;;;;;;;;;;4997908;28;20206;-85
2021/08/19 10:32:31;;;;;;;11.10;8.67;;;;;;;;;;4997400;28;20163;-87
2021/08/19 10:35:00;;;;;;;12.97;8.73;;;;;;;;;;4995979;28;20201;-87
2021/08/19 10:37:45;;;;;;;9.33;8.43;;;;;;;;;;4996143;28;20178;-86
2021/08/19 10:40:24;;;;;;;12.50;9.23;;;;;;;;;;4996766;28;20186;-85
2021/08/19 10:42:54;;;;;;;10.20;9.17;;;;;;;;;;4996426;28;20224;-85
2021/08/19 10:45:32;;;;;;;9.07;7.33;;;;;;;;;;4996585;28;20178;-87
2021/08/19 10:48:01;;;;;;;8.73;7.67;;;;;;;;;;4996077;28;20279;-88
2021/08/19 10:50:31;;;;;;;10.77;8.23;;;;;;;;;;4995118;28;20202;-86
2021/08/19 10:53:08;;;;;;;9.13;8.10;;;;;;;;;;4996031;28;20187;-87
2021/08/19 10:55:52;;;;;;;11.53;7.70;;;;;;;;;;5010703;28;20233;-87
2021/08/19 10:58:27;;;;;;;9.13;8.17;;;;;;;;;;5019195;28;20540;-87
2021/08/19 11:00:58;;;;;;;9.00;8.10;;;;;;;;;;5012689;28;20272;-86
2021/08/19 11:03:39;;;;;;;13.20;7.27;;;;;;;;;;5032374;28;20180;-87
2021/08/19 11:06:05;;;;;;;9.27;6.77;;;;;;;;;;5031279;28;20791;-87
2021/08/19 11:08:38;;;;;;;8.37;6.87;;;;;;;;;;5034429;28;20214;-87
2021/08/19 11:11:04;;;;;;;6.80;6.10;;;;;;;;;;5032869;28;20185;-87
2021/08/19 11:13:35;;;;;;;7.67;6.67;;;;;;;;;;5031857;28;20511;-87
2021/08/19 11:16:01;;;;;;;7.20;6.50;;;;;;;;;;5031853;28;20170;-87
2021/08/19 11:18:29;;;;;;;7.67;6.07;;;;;;;;;;5031406;28;20177;-87
2021/08/19 11:20:55;;;;;;;8.47;5.90;;;;;;;;;;5031018;28;20174;-87
2021/08/19 11:23:51;;;;;;;6.90;6.20;;;;;;;;;;5031832;28;20173;-87
2021/08/19 11:26:20;;;;;;;5.97;5.10;;;;;;;;;;5028531;28;20281;-87
2021/08/19 11:28:47;;;;;;;6.13;5.37;;;;;;;;;;5031630;28;20210;-87
2021/08/19 11:31:24;;;;;;;8.33;6.83;;;;;;;;;;5014837;28;20212;-87
2021/08/19 11:33:59;;;;;;;5.83;5.07;;;;;;;;;;5031485;28;20208;-87
2021/08/19 11:36:25;;;;;;;6.17;5.47;;;;;;;;;;5024453;28;20177;-87
2021/08/19 11:38:56;;;;;;;6.43;5.73;;;;;;;;;;5030912;28;20182;-87
2021/08/19 11:41:22;;;;;;;6.00;5.00;;;;;;;;;;5031040;28;20309;-87
2021/08/19 11:43:49;;;;;;;5.93;5.33;;;;;;;;;;5033143;28;20184;-87
2021/08/19 11:46:18;;;;;;;6.47;5.53;;;;;;;;;;5014741;28;20188;-86
2021/08/19 11:48:49;;;;;;;6.70;4.70;;;;;;;;;;5032243;28;20550;-87
2021/08/19 11:51:29;;;;;;;5.87;4.70;;;;;;;;;;5031446;28;20182;-86
2021/08/19 11:53:56;;;;;;;5.77;5.17;;;;;;;;;;5015002;28;20254;-86
2021/08/19 11:56:25;;;;;;;6.00;4.40;;;;;;;;;;5029986;28;20724;-87
2021/08/19 11:58:53;;;;;;;5.60;4.37;;;;;;;;;;5029645;28;20532;-87
2021/08/19 12:01:22;;;;;;;5.47;4.07;;;;;;;;;;5031931;28;20182;-86
2021/08/19 12:03:48;;;;;;;5.53;4.07;;;;;;;;;;5030336;28;20178;-86
2021/08/19 12:06:18;;;;;;;6.60;4.70;;;;;;;;;;5012924;28;20669;-86
2021/08/19 12:08:48;;;;;;;5.43;4.50;;;;;;;;;;5030457;28;20178;-86
2021/08/19 12:11:15;;;;;;;4.90;4.40;;;;;;;;;;5028926;28;20174;-87
2021/08/19 12:13:41;;;;;;;4.80;3.77;;;;;;;;;;5001881;28;20182;-86
2021/08/19 12:16:08;;;;;;;5.90;4.07;;;;;;;;;;5029850;28;20224;-87
2021/08/19 12:18:34;;;;;;;4.60;4.20;;;;;;;;;;5031156;28;20205;-87
2021/08/19 12:21:17;;;;;;;4.57;3.27;;;;;;;;;;5031048;28;20174;-87
2021/08/19 12:23:44;;;;;;;3.57;3.13;;;;;;;;;;5007149;28;20188;-87
2021/08/19 12:26:12;;;;;;;3.70;3.40;;;;;;;;;;5030006;28;20648;-87
2021/08/19 12:28:38;;;;;;;4.93;3.73;;;;;;;;;;5031012;28;20189;-87
2021/08/19 12:31:09;;;;;;;4.20;3.13;;;;;;;;;;5030324;28;20540;-87
2021/08/19 12:33:39;;;;;;;5.93;3.77;;;;;;;;;;5030247;28;20280;-87
2021/08/19 12:36:09;;;;;;;4.83;3.43;;;;;;;;;;5012935;28;20189;-87
2021/08/19 12:38:36;;;;;;;3.97;3.30;;;;;;;;;;5031594;28;20178;-87
2021/08/19 12:41:11;;;;;;;4.70;3.30;;;;;;;;;;5016257;28;20196;-87
2021/08/19 12:43:38;;;;;;;4.23;3.30;;;;;;;;;;5008344;28;20184;-86
2021/08/19 12:46:07;;;;;;;4.77;3.07;;;;;;;;;;5040104;28;20177;-86
2021/08/19 12:48:37;;;;;;;4.03;3.13;;;;;;;;;;5017513;28;20178;-87
2021/08/19 12:51:19;;;;;;;4.47;3.43;;;;;;;;;;5013540;28;20293;-87
2021/08/19 12:54:02;;;;;;;3.87;3.27;;;;;;;;;;5032063;28;20946;-87
2021/08/19 12:56:28;;;;;;;3.43;3.13;;;;;;;;;;5008697;28;20213;-87
2021/08/19 12:58:55;;;;;;;3.40;2.97;;;;;;;;;;5013838;28;20200;-87
2021/08/19 13:01:21;;;;;;;4.27;3.33;;;;;;;;;;5022048;28;20213;-87
2021/08/19 13:03:47;;;;;;;3.50;3.20;;;;;;;;;;5030679;28;20202;-87
2021/08/19 13:06:13;;;;;;;3.20;2.90;;;;;;;;;;5013457;28;20214;-87
2021/08/19 13:08:39;;;;;;;3.33;3.07;;;;;;;;;;5030175;28;20186;-86
2021/08/19 13:11:05;;;;;;;4.13;2.83;;;;;;;;;;5029950;28;20280;-87
2021/08/19 13:13:31;;;;;;;5.07;3.47;;;;;;;;;;5030642;28;20580;-87
2021/08/19 13:15:58;;;;;;;3.50;3.20;;;;;;;;;;5031044;28;20193;-87
2021/08/19 13:18:24;;;;;;;4.07;3.17;;;;;;;;;;5029790;28;21066;-87
2021/08/19 13:20:50;;;;;;;3.17;2.87;;;;;;;;;;5016141;28;20653;-87
2021/08/19 13:23:16;;;;;;;4.40;3.37;;;;;;;;;;5034821;28;20246;-86
2021/08/19 13:25:42;;;;;;;4.13;3.03;;;;;;;;;;5030867;28;20222;-87
2021/08/19 13:28:09;;;;;;;4.53;3.63;;;;;;;;;;5016089;28;20498;-85
2021/08/19 13:30:37;;;;;;;3.03;2.73;;;;;;;;;;5032700;28;20241;-84
2021/08/19 13:33:03;;;;;;;3.90;3.00;;;;;;;;;;5029648;28;20178;-83
2021/08/19 13:35:33;;;;;;;3.30;3.00;;;;;;;;;;5016457;28;20205;-84
2021/08/19 13:37:59;;;;;;;3.50;3.20;;;;;;;;;;5016495;28;20177;-83
2021/08/19 13:40:25;;;;;;;3.43;3.07;;;;;;;;;;5033344;28;20196;-84
2021/08/19 13:42:51;;;;;;;3.10;2.80;;;;;;;;;;5032601;28;20231;-83
2021/08/19 13:45:17;;;;;;;3.97;3.20;;;;;;;;;;5033965;28;20800;-84
2021/08/19 13:47:43;;;;;;;4.10;3.10;;;;;;;;;;5033007;28;20178;-84
2021/08/19 13:50:09;;;;;;;4.27;3.13;;;;;;;;;;5015869;28;20660;-83
2021/08/19 13:52:36;;;;;;;4.20;3.10;;;;;;;;;;5032935;28;20235;-84
2021/08/19 13:55:02;;;;;;;3.33;2.90;;;;;;;;;;5033498;28;20265;-83
2021/08/19 13:57:28;;;;;;;3.37;2.90;;;;;;;;;;5016363;28;20617;-83
2021/08/19 13:59:54;;;;;;;4.73;3.43;;;;;;;;;;5033532;28;20310;-83
2021/08/19 14:02:21;;;;;;;4.17;2.90;;;;;;;;;;5016717;28;20204;-83
2021/08/19 14:04:47;;;;;;;4.27;3.20;;;;;;;;;;5037565;28;20663;-84
2021/08/19 14:07:13;;;;;;;3.17;2.83;;;;;;;;;;5033224;28;20237;-84
2021/08/19 14:09:39;;;;;;;4.20;3.33;;;;;;;;;;5032982;28;20190;-83
2021/08/19 14:12:05;;;;;;;3.83;2.90;;;;;;;;;;5016319;28;20676;-83
2021/08/19 14:14:31;;;;;;;4.77;3.97;;;;;;;;;;5033666;28;20209;-84
2021/08/19 14:16:57;;;;;;;3.83;3.13;;;;;;;;;;5032179;28;20183;-83
2021/08/19 14:19:23;;;;;;;3.57;3.07;;;;;;;;;;5030394;28;20194;-83
2021/08/19 14:21:49;;;;;;;3.33;3.03;;;;;;;;;;5009207;28;20189;-84
2021/08/19 14:24:16;;;;;;;4.23;3.10;;;;;;;;;;5020855;28;20202;-84
2021/08/19 14:26:44;;;;;;;4.30;3.83;;;;;;;;;;5033930;28;20185;-83
2021/08/19 14:29:10;;;;;;;3.63;3.20;;;;;;;;;;5016308;28;20197;-85
2021/08/19 14:31:36;;;;;;;4.43;3.40;;;;;;;;;;5032149;28;20273;-83
2021/08/19 14:34:02;;;;;;;4.13;3.53;;;;;;;;;;5015605;28;20185;-84
2021/08/19 14:36:33;;;;;;;3.57;3.27;;;;;;;;;;5032948;28;20184;-83
2021/08/19 14:38:59;;;;;;;6.20;3.33;;;;;;;;;;5016830;28;20174;-86